createdAt,value
2023-04-25T00:02:18.028Z,8.50
2023-04-25T00:04:51.111Z,8.50
2023-04-25T00:07:20.966Z,8.50
2023-04-25T00:09:49.536Z,8.40
2023-04-25T00:12:19.331Z,8.40
2023-04-25T00:14:53.539Z,8.40
2023-04-25T00:17:23.988Z,8.40
2023-04-25T00:20:01.838Z,8.50
2023-04-25T00:22:29.962Z,8.50
2023-04-25T00:25:04.061Z,8.50
2023-04-25T00:27:35.049Z,8.50
2023-04-25T00:30:03.795Z,8.50
2023-04-25T00:32:32.503Z,8.50
2023-04-25T00:35:12.114Z,8.50
2023-04-25T00:37:45.110Z,8.40
2023-04-25T00:40:19.355Z,8.40
2023-04-25T00:42:53.971Z,8.40
2023-04-25T00:45:32.007Z,8.40
2023-04-25T00:50:58.981Z,8.30
2023-04-25T00:53:30.526Z,8.30
2023-04-25T00:55:59.576Z,8.30
2023-04-25T00:58:29.170Z,8.30
2023-04-25T01:00:59.775Z,8.30
2023-04-25T01:03:30.076Z,8.40
2023-04-25T01:06:05.266Z,8.50
2023-04-25T01:08:40.189Z,8.40
2023-04-25T01:11:11.964Z,8.40
2023-04-25T01:13:46.736Z,8.40
2023-04-25T01:19:31.779Z,8.40
2023-04-25T01:22:02.299Z,8.40
2023-04-25T01:24:34.825Z,8.50
2023-04-25T01:27:04.571Z,8.50
2023-04-25T01:29:34.777Z,8.50
2023-04-25T01:32:05.526Z,8.60
2023-04-25T01:34:35.110Z,8.60
2023-04-25T01:37:05.046Z,8.50
2023-04-25T01:39:33.398Z,8.50
2023-04-25T01:42:04.533Z,8.50
2023-04-25T01:44:37.565Z,8.50
2023-04-25T01:47:07.477Z,8.50
2023-04-25T01:49:36.522Z,8.60
2023-04-25T01:52:06.503Z,8.50
2023-04-25T01:54:36.061Z,8.50
2023-04-25T01:57:04.997Z,8.50
2023-04-25T01:59:35.905Z,8.50
2023-04-25T02:02:23.092Z,8.50
2023-04-25T02:04:52.783Z,8.50
2023-04-25T02:07:25.553Z,8.50
2023-04-25T02:09:55.370Z,8.50
2023-04-25T02:12:27.348Z,8.50
2023-04-25T02:14:58.426Z,8.50
2023-04-25T02:17:35.897Z,8.50
2023-04-25T02:20:05.836Z,8.50
2023-04-25T02:22:36.567Z,8.60
2023-04-25T02:25:09.276Z,8.60
2023-04-25T02:27:40.288Z,8.60
2023-04-25T02:30:10.129Z,8.60
2023-04-25T02:32:39.300Z,8.60
2023-04-25T02:35:08.253Z,8.50
2023-04-25T02:37:38.550Z,8.50
2023-04-25T02:40:09.875Z,8.50
2023-04-25T02:42:38.559Z,8.50
2023-04-25T02:45:07.068Z,8.60
2023-04-25T02:47:38.034Z,8.60
2023-04-25T02:50:06.688Z,8.60
2023-04-25T02:52:34.884Z,8.50
2023-04-25T02:55:14.654Z,8.50
2023-04-25T02:57:43.770Z,8.40
2023-04-25T03:00:17.942Z,8.30
2023-04-25T03:02:48.026Z,8.20
2023-04-25T03:05:17.371Z,8.20
2023-04-25T03:07:47.111Z,8.20
2023-04-25T03:10:16.833Z,8.20
2023-04-25T03:12:45.476Z,8.20
2023-04-25T03:15:13.919Z,8.30
2023-04-25T03:17:44.738Z,8.30
2023-04-25T03:20:14.177Z,8.30
2023-04-25T03:22:42.926Z,8.30
2023-04-25T03:25:13.669Z,8.20
2023-04-25T03:27:44.937Z,8.20
2023-04-25T03:30:14.531Z,8.20
2023-04-25T03:32:44.912Z,8.20
2023-04-25T03:35:17.817Z,8.20
2023-04-25T03:37:46.877Z,8.10
2023-04-25T03:40:20.845Z,8.10
2023-04-25T03:43:13.235Z,8.10
2023-04-25T03:45:46.555Z,8.20
2023-04-25T03:48:15.642Z,8.20
2023-04-25T03:50:44.923Z,8.20
2023-04-25T03:53:13.715Z,8.20
2023-04-25T03:56:01.264Z,8.20
2023-04-25T03:58:34.957Z,8.20
2023-04-25T04:01:08.346Z,8.20
2023-04-25T04:03:39.831Z,8.20
2023-04-25T04:06:09.849Z,8.20
2023-04-25T04:08:42.748Z,8.20
2023-04-25T04:11:13.118Z,8.20
2023-04-25T04:13:42.793Z,8.20
2023-04-25T04:16:11.679Z,8.20
2023-04-25T04:18:40.888Z,8.20
2023-04-25T04:21:10.896Z,8.30
2023-04-25T04:23:44.917Z,8.30
2023-04-25T04:26:17.241Z,8.40
2023-04-25T04:29:02.021Z,8.30
2023-04-25T04:31:51.912Z,8.30
2023-04-25T04:34:20.980Z,8.30
2023-04-25T04:36:50.116Z,8.30
2023-04-25T04:39:18.962Z,8.30
2023-04-25T04:42:04.188Z,8.30
2023-04-25T04:44:59.685Z,8.30
2023-04-25T04:47:42.227Z,8.20
2023-04-25T04:50:42.587Z,8.10
2023-04-25T04:53:25.358Z,8.00
2023-04-25T04:56:15.694Z,7.90
2023-04-25T04:59:08.946Z,7.90
2023-04-25T05:01:41.369Z,7.80
2023-04-25T05:04:24.938Z,7.80
2023-04-25T05:07:16.127Z,7.80
2023-04-25T05:10:09.466Z,7.80
2023-04-25T05:12:57.884Z,7.90
2023-04-25T05:15:42.380Z,7.90
2023-04-25T05:18:31.531Z,7.80
2023-04-25T05:21:09.364Z,7.80
2023-04-25T05:23:47.431Z,7.80
2023-04-25T05:26:49.997Z,7.80
2023-04-25T05:29:45.229Z,7.70
2023-04-25T05:32:31.577Z,7.80
2023-04-25T05:35:09.537Z,7.90
2023-04-25T05:37:50.078Z,8.00
2023-04-25T05:40:18.731Z,8.10
2023-04-25T05:42:47.509Z,8.30
2023-04-25T05:45:28.816Z,8.50
2023-04-25T05:48:07.508Z,8.70
2023-04-25T05:50:58.491Z,8.90
2023-04-25T05:53:46.391Z,9.10
2023-04-25T05:56:16.788Z,9.20
2023-04-25T05:58:48.012Z,9.40
2023-04-25T06:07:02.644Z,9.80
2023-04-25T06:09:32.493Z,10.10
2023-04-25T06:12:00.882Z,10.30
2023-04-25T06:14:29.845Z,10.30
2023-04-25T06:16:58.611Z,10.40
2023-04-25T06:19:28.680Z,10.70
2023-04-25T06:21:57.955Z,11.10
2023-04-25T06:24:27.275Z,11.90
2023-04-25T06:26:57.522Z,12.50
2023-04-25T06:32:23.512Z,12.50
2023-04-25T06:34:52.477Z,12.40
2023-04-25T06:37:20.951Z,12.20
2023-04-25T06:39:50.321Z,11.90
2023-04-25T06:42:19.811Z,11.80
2023-04-25T06:44:54.272Z,12.10
2023-04-25T06:47:24.124Z,12.80
2023-04-25T06:49:53.095Z,13.40
2023-04-25T06:52:25.292Z,14.00
2023-04-25T06:54:56.356Z,14.10
2023-04-25T06:57:37.776Z,14.60
2023-04-25T07:00:44.317Z,14.70
2023-04-25T07:03:13.584Z,14.30
2023-04-25T07:05:42.248Z,15.20
2023-04-25T07:08:10.447Z,16.60
2023-04-25T07:10:43.866Z,16.90
2023-04-25T07:13:12.023Z,17.30
2023-04-25T07:15:44.319Z,17.50
2023-04-25T07:18:13.399Z,18.10
2023-04-25T07:20:42.113Z,18.10
2023-04-25T07:23:10.293Z,17.70
2023-04-25T07:25:41.773Z,17.20
2023-04-25T07:28:12.134Z,16.90
2023-04-25T07:30:40.418Z,16.80
2023-04-25T07:33:11.818Z,16.50
2023-04-25T07:35:41.291Z,16.10
2023-04-25T07:38:11.646Z,15.20
2023-04-25T07:40:42.244Z,14.80
2023-04-25T07:43:17.529Z,14.80
2023-04-25T07:45:55.988Z,15.40
2023-04-25T07:48:24.398Z,16.40
2023-04-25T07:50:54.521Z,16.90
2023-04-25T07:53:23.542Z,17.00
2023-04-25T07:56:04.479Z,17.80
2023-04-25T07:58:36.255Z,18.00
2023-04-25T08:01:07.108Z,18.20
2023-04-25T08:03:53.642Z,18.30
2023-04-25T08:06:34.629Z,18.30
2023-04-25T08:09:10.207Z,17.80
2023-04-25T08:11:46.714Z,17.40
2023-04-25T08:14:28.347Z,18.10
2023-04-25T08:16:56.839Z,18.70
2023-04-25T08:19:26.842Z,19.40
2023-04-25T08:21:56.741Z,20.10
2023-04-25T08:24:31.009Z,20.60
2023-04-25T08:27:01.712Z,22.20
2023-04-25T08:29:30.707Z,23.00
2023-04-25T08:31:59.621Z,22.80
2023-04-25T08:34:28.332Z,22.50
2023-04-25T08:36:57.838Z,22.20
2023-04-25T08:39:43.142Z,21.80
2023-04-25T08:42:34.144Z,20.50
2023-04-25T08:45:08.264Z,20.90
2023-04-25T08:47:41.104Z,21.90
2023-04-25T08:50:10.438Z,22.30
2023-04-25T08:52:42.145Z,22.50
2023-04-25T08:55:11.966Z,23.10
2023-04-25T08:57:46.120Z,23.40
2023-04-25T09:00:22.784Z,23.40
2023-04-25T09:02:51.500Z,23.80
2023-04-25T09:05:24.172Z,23.70
2023-04-25T09:07:55.040Z,23.50
2023-04-25T09:10:27.821Z,22.60
2023-04-25T09:13:08.788Z,22.60
2023-04-25T09:15:58.309Z,22.50
2023-04-25T09:18:40.479Z,22.20
2023-04-25T09:21:14.349Z,23.10
2023-04-25T09:23:49.365Z,23.30
2023-04-25T09:26:19.767Z,21.70
2023-04-25T09:28:51.210Z,21.00
2023-04-25T09:31:26.506Z,20.50
2023-04-25T09:34:02.234Z,20.00
2023-04-25T09:36:37.032Z,20.10
2023-04-25T09:39:22.661Z,19.70
2023-04-25T09:42:08.236Z,19.10
2023-04-25T09:44:38.256Z,18.90
2023-04-25T09:47:12.135Z,18.70
2023-04-25T09:49:41.817Z,18.50
2023-04-25T09:52:15.961Z,18.10
2023-04-25T09:54:54.948Z,18.00
2023-04-25T09:57:30.840Z,17.80
2023-04-25T10:00:05.256Z,17.40
2023-04-25T10:02:44.891Z,16.80
2023-04-25T10:05:22.588Z,16.60
2023-04-25T10:07:51.401Z,16.50
2023-04-25T10:10:21.315Z,16.30
2023-04-25T10:12:49.900Z,16.10
2023-04-25T10:15:19.851Z,16.20
2023-04-25T10:17:51.884Z,16.40
2023-04-25T10:20:20.668Z,16.40
2023-04-25T10:22:55.378Z,16.20
2023-04-25T10:25:23.813Z,16.20
2023-04-25T10:27:52.748Z,16.30
2023-04-25T10:30:22.120Z,16.60
2023-04-25T10:32:51.965Z,16.90
2023-04-25T10:35:21.518Z,17.30
2023-04-25T10:38:00.274Z,17.60
2023-04-25T10:40:28.904Z,17.70
2023-04-25T10:42:57.683Z,17.80
2023-04-25T10:45:28.057Z,17.80
2023-04-25T10:47:56.606Z,17.30
2023-04-25T10:50:28.110Z,17.30
2023-04-25T10:52:56.488Z,17.00
2023-04-25T10:55:24.891Z,16.30
2023-04-25T10:57:53.926Z,16.30
2023-04-25T11:00:25.931Z,17.30
2023-04-25T11:03:01.984Z,18.10
2023-04-25T11:05:36.532Z,18.60
2023-04-25T11:08:16.448Z,19.70
2023-04-25T11:10:45.069Z,20.50
2023-04-25T11:13:13.308Z,20.80
2023-04-25T11:15:41.655Z,20.60
2023-04-25T11:18:11.062Z,20.70
2023-04-25T11:20:39.981Z,20.80
2023-04-25T11:23:08.440Z,20.40
2023-04-25T11:25:38.748Z,20.90
2023-04-25T11:28:07.557Z,20.40
2023-04-25T11:30:36.029Z,19.50
2023-04-25T11:33:05.028Z,18.90
2023-04-25T11:35:34.939Z,18.20
2023-04-25T11:38:03.777Z,17.50
2023-04-25T11:40:32.757Z,17.20
2023-04-25T11:43:02.264Z,17.30
2023-04-25T11:45:31.811Z,17.00
2023-04-25T11:47:59.813Z,16.90
2023-04-25T11:50:31.034Z,16.80
2023-04-25T11:53:01.028Z,17.10
2023-04-25T11:55:32.189Z,17.40
2023-04-25T11:58:02.003Z,18.00
2023-04-25T12:00:30.058Z,18.80
2023-04-25T12:02:59.235Z,18.90
2023-04-25T12:05:33.310Z,18.40
2023-04-25T12:08:14.581Z,18.10
2023-04-25T12:10:44.183Z,17.50
2023-04-25T12:13:25.808Z,17.10
2023-04-25T12:15:54.201Z,16.80
2023-04-25T12:18:23.548Z,16.40
2023-04-25T12:20:52.675Z,16.40
2023-04-25T12:23:29.701Z,17.10
2023-04-25T12:26:01.015Z,17.20
2023-04-25T12:28:29.674Z,17.10
2023-04-25T12:30:58.934Z,16.90
2023-04-25T12:33:28.510Z,16.80
2023-04-25T12:35:57.490Z,16.80
2023-04-25T12:38:27.019Z,16.90
2023-04-25T12:40:57.221Z,16.90
2023-04-25T12:43:26.185Z,17.10
2023-04-25T12:45:55.134Z,17.20
2023-04-25T12:48:23.491Z,17.50
2023-04-25T12:50:52.769Z,17.60
2023-04-25T12:53:22.193Z,18.00
2023-04-25T12:55:50.961Z,18.80
2023-04-25T12:58:20.969Z,19.80
2023-04-25T13:00:49.548Z,19.90
2023-04-25T13:03:19.104Z,19.30
2023-04-25T13:05:47.450Z,19.10
2023-04-25T13:08:16.468Z,19.10
2023-04-25T13:10:44.624Z,18.90
2023-04-25T13:13:12.891Z,19.00
2023-04-25T13:15:43.511Z,19.20
2023-04-25T13:18:12.149Z,19.60
2023-04-25T13:20:41.128Z,19.40
2023-04-25T13:23:09.774Z,19.20
2023-04-25T13:25:38.146Z,18.60
2023-04-25T13:28:06.531Z,18.50
2023-04-25T13:30:34.880Z,18.00
2023-04-25T13:33:05.201Z,17.60
2023-04-25T13:35:34.248Z,17.30
2023-04-25T13:38:07.248Z,17.60
2023-04-25T13:40:35.903Z,18.10
2023-04-25T13:43:06.238Z,18.50
2023-04-25T13:45:34.478Z,18.60
2023-04-25T13:48:03.159Z,17.90
2023-04-25T13:50:35.210Z,17.30
2023-04-25T13:53:04.771Z,17.10
2023-04-25T13:55:37.088Z,17.10
2023-04-25T13:58:10.576Z,17.20
2023-04-25T14:00:44.414Z,16.90
2023-04-25T14:03:12.727Z,16.30
2023-04-25T14:05:42.560Z,16.50
2023-04-25T14:08:11.633Z,16.70
2023-04-25T14:10:39.705Z,17.30
2023-04-25T14:13:09.572Z,17.80
2023-04-25T14:15:39.372Z,18.00
2023-04-25T14:18:09.077Z,17.80
2023-04-25T14:20:38.231Z,17.90
2023-04-25T14:23:08.588Z,17.60
2023-04-25T14:25:37.676Z,17.10
2023-04-25T14:28:05.848Z,16.80
2023-04-25T14:30:34.847Z,16.30
2023-04-25T14:33:03.124Z,16.20
2023-04-25T14:35:32.473Z,16.10
2023-04-25T14:38:00.590Z,16.00
2023-04-25T14:40:30.969Z,16.10
2023-04-25T14:43:00.104Z,16.20
2023-04-25T14:45:28.538Z,16.40
2023-04-25T14:47:57.393Z,16.70
2023-04-25T14:50:25.812Z,16.70
2023-04-25T14:52:53.834Z,16.50
2023-04-25T14:55:23.455Z,16.30
2023-04-25T14:57:56.430Z,16.30
2023-04-25T15:00:28.050Z,16.30
2023-04-25T15:02:57.066Z,15.90
2023-04-25T15:05:25.746Z,15.60
2023-04-25T15:07:54.248Z,15.50
2023-04-25T15:10:22.844Z,15.60
2023-04-25T15:12:51.976Z,15.70
2023-04-25T15:15:26.418Z,15.90
2023-04-25T15:17:58.690Z,15.80
2023-04-25T15:20:31.755Z,15.80
2023-04-25T15:23:00.511Z,15.80
2023-04-25T15:25:29.688Z,15.90
2023-04-25T15:27:57.974Z,15.80
2023-04-25T15:30:28.873Z,15.90
2023-04-25T15:32:57.555Z,15.70
2023-04-25T15:35:26.737Z,15.40
2023-04-25T15:37:55.722Z,15.20
2023-04-25T15:40:25.370Z,14.90
2023-04-25T15:42:54.319Z,14.70
2023-04-25T15:45:27.201Z,14.60
2023-04-25T15:47:58.145Z,14.60
2023-04-25T15:50:27.197Z,14.50
2023-04-25T15:52:55.694Z,14.50
2023-04-25T15:55:26.757Z,14.50
2023-04-25T15:57:55.721Z,14.40
2023-04-25T16:00:23.900Z,14.50
2023-04-25T16:02:52.951Z,14.90
2023-04-25T16:05:23.063Z,14.90
2023-04-25T16:07:53.879Z,15.00
2023-04-25T16:10:22.461Z,15.00
2023-04-25T16:12:51.388Z,15.00
2023-04-25T16:15:19.715Z,15.00
2023-04-25T16:17:50.163Z,15.20
2023-04-25T16:20:19.899Z,15.40
2023-04-25T16:22:52.327Z,15.90
2023-04-25T16:25:21.863Z,16.80
2023-04-25T16:27:50.218Z,16.90
2023-04-25T16:30:18.714Z,16.80
2023-04-25T16:32:48.370Z,16.50
2023-04-25T16:35:17.052Z,16.40
2023-04-25T16:37:45.133Z,16.50
2023-04-25T16:40:16.324Z,16.90
2023-04-25T16:42:44.779Z,16.70
2023-04-25T16:45:14.704Z,16.10
2023-04-25T16:47:42.721Z,15.70
2023-04-25T16:50:11.566Z,15.50
2023-04-25T16:52:40.524Z,15.30
2023-04-25T16:55:10.295Z,15.00
2023-04-25T16:57:40.374Z,15.00
2023-04-25T17:00:13.003Z,14.80
2023-04-25T17:02:42.876Z,14.60
2023-04-25T17:05:12.043Z,14.20
2023-04-25T17:07:41.290Z,13.90
2023-04-25T17:10:10.340Z,13.70
2023-04-25T17:12:43.173Z,13.50
2023-04-25T17:15:14.251Z,13.30
2023-04-25T17:17:43.457Z,13.30
2023-04-25T17:20:13.840Z,13.20
2023-04-25T17:22:42.498Z,13.20
2023-04-25T17:25:11.748Z,13.10
2023-04-25T17:27:43.091Z,13.00
2023-04-25T17:30:13.033Z,13.00
2023-04-25T17:32:41.621Z,12.90
2023-04-25T17:35:10.420Z,12.90
2023-04-25T17:37:39.427Z,12.80
2023-04-25T17:40:14.072Z,12.80
2023-04-25T17:42:45.889Z,12.70
2023-04-25T17:45:14.706Z,12.70
2023-04-25T17:47:43.394Z,12.70
2023-04-25T17:50:14.907Z,12.60
2023-04-25T17:52:45.976Z,12.60
2023-04-25T17:55:15.558Z,12.60
2023-04-25T17:57:46.550Z,12.60
2023-04-25T18:00:16.069Z,12.50
2023-04-25T18:02:45.816Z,12.40
2023-04-25T18:05:15.785Z,12.30
2023-04-25T18:07:44.992Z,12.20
2023-04-25T18:10:14.539Z,12.00
2023-04-25T18:12:47.292Z,11.90
2023-04-25T18:15:16.651Z,11.80
2023-04-25T18:17:46.327Z,11.70
2023-04-25T18:20:16.958Z,11.70
2023-04-25T18:22:45.817Z,11.60
2023-04-25T18:25:17.341Z,11.60
2023-04-25T18:27:50.588Z,11.50
2023-04-25T18:30:19.284Z,11.50
2023-04-25T18:32:51.059Z,11.40
2023-04-25T18:35:19.506Z,11.30
2023-04-25T18:37:47.735Z,11.20
2023-04-25T18:40:17.075Z,11.10
2023-04-25T18:42:47.780Z,11.10
2023-04-25T18:45:20.084Z,11.00
2023-04-25T18:47:48.151Z,10.90
2023-04-25T18:50:20.323Z,10.80
2023-04-25T18:52:48.449Z,10.70
2023-04-25T18:55:16.465Z,10.60
2023-04-25T18:57:48.532Z,10.50
2023-04-25T19:00:18.821Z,10.40
2023-04-25T19:02:48.830Z,10.30
2023-04-25T19:05:17.585Z,10.10
2023-04-25T19:07:47.350Z,10.00
2023-04-25T19:10:15.502Z,9.90
2023-04-25T19:12:44.224Z,9.90
2023-04-25T19:15:12.631Z,9.70
2023-04-25T19:17:42.849Z,9.60
2023-04-25T19:20:11.548Z,9.50
2023-04-25T19:22:39.928Z,9.40
2023-04-25T19:25:11.447Z,9.20
2023-04-25T19:27:41.431Z,9.10
2023-04-25T19:30:10.831Z,8.90
2023-04-25T19:32:40.352Z,8.80
2023-04-25T19:35:11.918Z,8.70
2023-04-25T19:37:46.487Z,8.60
2023-04-25T19:40:16.292Z,8.40
2023-04-25T19:42:46.291Z,8.40
2023-04-25T19:45:15.647Z,8.30
2023-04-25T19:47:45.057Z,8.20
2023-04-25T19:50:16.579Z,8.10
2023-04-25T19:52:48.319Z,8.10
2023-04-25T19:55:16.915Z,8.00
2023-04-25T19:57:46.982Z,7.90
2023-04-25T20:00:19.278Z,7.90
2023-04-25T20:02:49.210Z,7.90
2023-04-25T20:05:19.243Z,7.90
2023-04-25T20:07:48.217Z,7.90
2023-04-25T20:10:17.942Z,8.00
2023-04-25T20:12:47.988Z,8.00
2023-04-25T20:15:18.881Z,7.90
2023-04-25T20:17:48.035Z,7.90
2023-04-25T20:20:17.752Z,7.80
2023-04-25T20:22:48.243Z,7.80
2023-04-25T20:25:19.360Z,7.70
2023-04-25T20:27:49.120Z,7.70
2023-04-25T20:30:22.917Z,7.80
2023-04-25T20:32:51.161Z,7.80
2023-04-25T20:35:19.636Z,7.80
2023-04-25T20:37:54.035Z,7.80
2023-04-25T20:40:22.262Z,7.80
2023-04-25T20:42:51.831Z,7.90
2023-04-25T20:45:20.316Z,7.90
2023-04-25T20:47:50.351Z,7.90
2023-04-25T20:50:19.521Z,7.90
2023-04-25T20:52:47.938Z,7.90
2023-04-25T20:55:18.334Z,7.90
2023-04-25T20:57:49.051Z,7.80
2023-04-25T21:00:18.909Z,7.70
2023-04-25T21:02:47.517Z,7.70
2023-04-25T21:05:18.051Z,7.60
2023-04-25T21:07:47.137Z,7.50
2023-04-25T21:10:15.996Z,7.50
2023-04-25T21:12:49.489Z,7.40
2023-04-25T21:15:20.099Z,7.30
2023-04-25T21:17:48.342Z,7.20
2023-04-25T21:20:18.301Z,7.20
2023-04-25T21:22:51.022Z,7.10
2023-04-25T21:25:27.587Z,7.00
2023-04-25T21:27:57.781Z,6.90
2023-04-25T21:30:26.206Z,6.70
2023-04-25T21:32:55.367Z,6.60
2023-04-25T21:35:24.261Z,6.50
2023-04-25T21:37:52.724Z,6.40
2023-04-25T21:40:21.698Z,6.20
2023-04-25T21:42:51.841Z,6.00
2023-04-25T21:45:21.982Z,5.90
2023-04-25T21:47:50.695Z,5.70
2023-04-25T21:50:19.761Z,5.50
2023-04-25T21:52:48.239Z,5.40
2023-04-25T21:55:16.906Z,5.20
2023-04-25T21:57:45.443Z,5.10
2023-04-25T22:00:24.460Z,5.00
2023-04-25T22:02:55.368Z,5.00
2023-04-25T22:05:26.443Z,4.90
2023-04-25T22:07:56.427Z,4.80
2023-04-25T22:10:25.360Z,4.80
2023-04-25T22:12:54.031Z,4.70
2023-04-25T22:15:25.617Z,4.80
2023-04-25T22:17:55.671Z,4.80
2023-04-25T22:20:36.398Z,4.80
2023-04-25T22:23:05.469Z,4.70
2023-04-25T22:25:33.638Z,4.60
2023-04-25T22:28:09.321Z,4.60
2023-04-25T22:30:38.784Z,4.60
2023-04-25T22:33:13.663Z,4.50
2023-04-25T22:38:46.178Z,4.20
2023-04-25T22:41:24.004Z,4.00
2023-04-25T22:44:17.411Z,4.00
2023-04-25T22:56:16.111Z,3.70
2023-04-25T22:58:44.366Z,3.60
2023-04-25T23:01:13.152Z,3.50
2023-04-25T23:03:43.943Z,3.40
2023-04-25T23:06:17.199Z,3.40
2023-04-25T23:08:50.797Z,3.40
2023-04-25T23:11:21.881Z,3.40
2023-04-25T23:13:50.427Z,3.40
2023-04-25T23:16:20.512Z,3.30
2023-04-25T23:19:02.950Z,3.30
2023-04-25T23:21:41.323Z,3.30
2023-04-25T23:24:53.196Z,3.30
2023-04-25T23:27:24.566Z,3.40
2023-04-25T23:29:57.312Z,3.30
2023-04-25T23:32:26.689Z,3.20
2023-04-25T23:34:55.334Z,3.10
2023-04-25T23:37:23.944Z,3.00
2023-04-25T23:39:52.472Z,2.90
2023-04-25T23:42:22.262Z,2.80
2023-04-25T23:44:52.212Z,2.80
2023-04-25T23:47:20.552Z,2.80
2023-04-25T23:49:49.240Z,2.80
2023-04-25T23:52:18.189Z,2.80
2023-04-25T23:54:46.347Z,2.70
2023-04-25T23:57:15.954Z,2.70
2023-04-25T23:59:46.061Z,2.60
